Latest Weather Observations for Halls Creek

IDW60801

Issued at 6:53 am WST Friday 19 August 2022 (issued every 10 minutes, with the page automatically refreshed every 10 minutes)

About weather observations | Map of weather stations | Latest weather observations for WA | Other Formats
Station Details ID: 002079 Name: HALLS CREEK AIRPORT Lat: -18.23 Lon: 127.67 Height: 409.4 m
Data from the previous 72 hours. | See also: Recent months at Halls Creek
Date/Time
WST
Temp
°C
App
Temp
°C
Dew
Point
°C
Rel
Hum
%
Delta-T
°C
Wind Press
QNH
hPa
Press
MSL
hPa
Rain since
9am
mm
Dir  Spd
km/h
Gust
km/h
Spd
kts
Gust
kts
19/06:30am 19.3 13.2 2.6 33 7.9 SE 24 32 13 17 1019.2 1017.4 0.0
19/06:00am 18.7 13.3 2.5 34 7.6 SE 20 33 11 18 1018.8 1017.0 0.0
19/05:30am 19.1 13.8 2.9 34 7.7 SSE 20 30 11 16 1018.3 1016.5 0.0
19/05:00am 19.3 14.0 3.1 34 7.7 SE 20 28 11 15 1018.2 1016.4 0.0
19/04:30am 19.2 14.2 3.8 36 7.5 SE 19 30 10 16 1017.9 1016.0 0.0
19/04:00am 19.3 15.1 3.9 36 7.5 SE 15 22 8 12 1017.8 1015.9 0.0
19/03:30am 19.6 15.4 3.7 35 7.7 SSE 15 22 8 12 1017.3 1015.5 0.0
19/03:00am 20.1 15.9 3.8 34 7.9 SSE 15 20 8 11 1017.3 1015.5 0.0
19/02:40am 20.4 15.8 3.6 33 8.2 SSE 17 24 9 13 1017.1 1015.3 0.0
19/02:30am 20.8 16.5 3.5 32 8.4 SSE 15 22 8 12 1017.1 1015.3 0.0
19/02:26am 20.7 16.4 3.4 32 8.4 SSE 15 22 8 12 1017.2 1015.4 0.0
19/02:00am 21.4 17.2 3.6 31 8.7 SSE 15 20 8 11 1017.1 1015.3 0.0
19/01:30am 22.0 17.7 3.2 29 9.2 SSE 15 20 8 11 1016.9 1015.1 0.0
19/01:00am 22.6 17.4 2.7 27 9.6 SSE 19 28 10 15 1016.8 1015.0 0.0
19/12:30am 23.3 17.1 2.2 25 10.2 SSE 24 35 13 19 1016.6 1014.8 0.0
19/12:00am 23.5 16.7 -2.2 18 11.4 S 24 33 13 18 1016.6 1014.8 0.0
 
Date/Time
WST
Temp
°C
App
Temp
°C
Dew
Point
°C
Rel
Hum
%
Delta-T
°C
Wind Press
QNH
hPa
Press
MSL
hPa
Rain since
9am
mm
Dir  Spd
km/h
Gust
km/h
Spd
kts
Gust
kts
18/11:40pm 20.3 15.3 -4.0 19 10.2 S 13 20 7 11 1016.7 1014.9 0.0
18/11:30pm 15.3 12.6 -5.7 23 8.1 CALM 0 9 0 5 1016.7 1014.9 0.0
18/11:00pm 15.6 12.6 -5.4 23 8.1 W 2 6 1 3 1016.6 1014.8 0.0
18/10:30pm 15.2 11.4 -5.8 23 8.0 W 6 7 3 4 1016.5 1014.7 0.0
18/10:00pm 16.2 13.5 -6.1 21 8.5 CALM 0 0 0 0 1016.7 1014.9 0.0
18/09:30pm 16.5 13.7 -6.5 20 8.8 CALM 0 0 0 0 1016.8 1015.0 0.0
18/09:00pm 17.4 14.7 -6.4 19 9.2 CALM 0 0 0 0 1016.8 1015.0 0.0
18/08:30pm 18.6 15.8 -6.9 17 9.9 CALM 0 0 0 0 1016.8 1015.0 0.0
18/08:00pm 20.0 16.0 -7.4 15 10.7 ESE 6 6 3 3 1016.6 1014.8 0.0
18/07:30pm 20.1 16.1 -7.3 15 10.7 ESE 6 6 3 3 1016.4 1014.6 0.0
18/07:00pm 21.9 17.6 -8.7 12 11.8 SE 7 9 4 5 1016.0 1014.2 0.0
18/06:30pm 23.0 18.7 -9.0 11 12.5 SSE 7 11 4 6 1015.8 1014.0 0.0
18/06:00pm 26.5 21.8 -8.9 9 14.3 SE 9 13 5 7 1015.4 1013.5 0.0
18/05:30pm 28.2 23.5 -9.1 8 15.3 SE 9 15 5 8 1015.2 1013.3 0.0
18/05:00pm 30.6 24.8 -9.1 7 16.6 SE 15 19 8 10 1014.9 1013.1 0.0
18/04:30pm 31.8 26.0 -8.2 7 17.2 SE 15 22 8 12 1014.8 1013.0 0.0
18/04:00pm 32.4 25.8 -9.7 6 17.7 SSE 19 24 10 13 1014.8 1013.0 0.0
18/03:30pm 32.7 28.0 -9.5 6 17.9 ESE 9 15 5 8 1014.7 1012.9 0.0
18/03:00pm 32.5 26.2 -9.7 6 17.8 SSE 17 28 9 15 1014.9 1013.1 0.0
18/02:30pm 33.0 26.2 -9.3 6 18.0 S 20 30 11 16 1015.1 1013.2 0.0
18/02:00pm 33.0 27.7 -7.3 7 17.7 ESE 13 32 7 17 1015.1 1013.2 0.0
18/01:30pm 32.4 26.3 -7.8 7 17.5 SSE 17 26 9 14 1015.5 1013.6 0.0
18/01:00pm 32.3 27.3 -7.8 7 17.4 SSE 11 20 6 11 1015.7 1013.8 0.0
18/12:30pm 31.4 26.4 -8.5 7 17.0 SSW 11 22 6 12 1016.2 1014.4 0.0
18/12:00pm 31.6 25.8 -8.3 7 17.0 SE 15 20 8 11 1016.6 1014.8 0.0
18/11:30am 30.8 26.5 -8.9 7 16.7 NNW 7 13 4 7 1017.1 1015.3 0.0
18/11:00am 30.0 25.4 -7.8 8 16.1 NE 9 13 5 7 1017.4 1015.6 0.0
18/10:30am 29.6 24.2 -8.1 8 15.9 N 13 19 7 10 1018.0 1016.2 0.0
18/10:00am 29.4 24.4 -8.2 8 15.8 ENE 11 22 6 12 1018.5 1016.7 0.0
18/09:30am 28.6 22.9 -7.3 9 15.2 NE 15 22 8 12 1018.7 1016.9 0.0
18/09:00am 27.2 21.0 -8.4 9 14.6 NE 17 20 9 11 1018.8 1017.0 0.0
18/08:30am 25.7 20.9 -5.8 12 13.4 ENE 11 15 6 8 1019.0 1017.2 0.0
18/08:00am 22.4 18.5 -4.6 16 11.3 ENE 7 9 4 5 1019.0 1017.2 0.0
18/07:30am 18.8 15.5 -4.0 21 9.4 ENE 4 6 2 3 1018.8 1017.0 0.0
18/07:00am 15.9 13.1 -3.6 26 7.9 ENE 2 6 1 3 1018.6 1016.8 0.0
18/06:30am 12.2 9.8 -3.2 34 6.0 CALM 0 0 0 0 1018.3 1016.5 0.0
18/06:00am 10.5 8.0 -4.3 35 5.5 CALM 0 0 0 0 1018.0 1016.2 0.0
18/05:30am 11.5 7.2 -5.0 31 6.2 WSW 9 11 5 6 1017.8 1015.9 0.0
18/05:00am 12.5 7.8 -5.0 29 6.6 WSW 11 13 6 7 1017.4 1015.6 0.0
18/04:30am 11.0 6.7 -5.0 32 5.9 WSW 9 13 5 7 1017.1 1015.3 0.0
18/04:00am 11.9 7.2 -5.1 30 6.3 WSW 11 13 6 7 1016.8 1015.0 0.0
18/03:30am 10.1 7.5 -4.6 35 5.4 CALM 0 0 0 0 1016.5 1014.7 0.0
18/03:00am 10.0 7.4 -4.7 35 5.4 CALM 0 0 0 0 1016.5 1014.7 0.0
18/02:30am 10.2 7.6 -4.6 35 5.5 CALM 0 4 0 2 1016.5 1014.7 0.0
18/02:00am 10.9 7.6 -4.7 33 5.8 NE 4 6 2 3 1016.4 1014.6 0.0
18/01:30am 11.1 7.8 -4.5 33 5.9 NE 4 9 2 5 1016.4 1014.6 0.0
18/01:00am 11.3 8.7 -4.8 32 6.0 CALM 0 0 0 0 1016.4 1014.6 0.0
18/12:30am 11.9 9.3 -4.7 31 6.3 CALM 0 0 0 0 1016.6 1014.8 0.0
18/12:00am 12.5 9.8 -5.5 28 6.7 CALM 0 0 0 0 1017.0 1015.2 0.0
 
Date/Time
WST
Temp
°C
App
Temp
°C
Dew
Point
°C
Rel
Hum
%
Delta-T
°C
Wind Press
QNH
hPa
Press
MSL
hPa
Rain since
9am
mm
Dir  Spd
km/h
Gust
km/h
Spd
kts
Gust
kts
17/11:30pm 13.1 10.5 -5.0 28 6.9 CALM 0 0 0 0 1017.2 1015.4 0.0
17/11:18pm 13.3 10.7 -4.8 28 6.9 CALM 0 0 0 0 1017.1 1015.3 0.0
17/11:00pm 13.4 10.8 -4.7 28 6.9 CALM 0 0 0 0 1017.2 1015.4 0.0
17/10:30pm 13.1 10.5 -5.0 28 6.9 CALM 0 0 0 0 1017.4 1015.6 0.0
17/10:00pm 14.3 11.7 -4.9 26 7.4 CALM 0 0 0 0 1017.7 1015.8 0.0
17/09:30pm 14.5 11.9 -4.7 26 7.5 CALM 0 0 0 0 1017.3 1015.5 0.0
17/09:00pm 15.0 12.4 -4.8 25 7.7 CALM 0 0 0 0 1017.4 1015.6 0.0
17/08:30pm 16.1 12.2 -5.0 23 8.3 E 7 19 4 10 1017.5 1015.7 0.0
17/08:00pm 17.5 13.6 -4.4 22 8.8 SW 7 9 4 5 1017.3 1015.5 0.0
17/07:30pm 17.8 15.2 -5.4 20 9.2 CALM 0 0 0 0 1017.2 1015.4 0.0
17/07:00pm 18.8 16.0 -6.7 17 9.9 CALM 0 0 0 0 1017.0 1015.2 0.0
17/06:30pm 20.3 17.6 -6.3 16 10.6 CALM 0 0 0 0 1016.7 1014.9 0.0
17/06:00pm 20.7 17.9 -6.8 15 10.9 CALM 0 0 0 0 1016.5 1014.7 0.0
17/05:30pm 23.6 20.3 -8.5 11 12.7 E 2 6 1 3 1016.3 1014.5 0.0
17/05:28pm 23.9 20.2 -8.3 11 12.8 E 4 6 2 3 1016.3 1014.5 0.0
17/05:00pm 28.9 24.2 -8.6 8 15.6 SE 9 13 5 7 1016.1 1014.3 0.0
17/04:30pm 30.1 25.4 -9.4 7 16.4 SE 9 15 5 8 1015.9 1014.1 0.0
17/04:00pm 30.5 25.4 -9.1 7 16.5 SSE 11 19 6 10 1015.8 1014.0 0.0
17/03:30pm 31.4 26.8 -8.5 7 17.0 ENE 9 17 5 9 1015.8 1014.0 0.0
17/03:00pm 31.2 25.4 -8.6 7 16.9 SE 15 22 8 12 1015.9 1014.1 0.0
17/02:30pm 31.4 26.8 -8.5 7 17.0 ESE 9 15 5 8 1015.9 1014.1 0.0
17/02:00pm 31.4 26.0 -8.5 7 17.0 SE 13 22 7 12 1016.1 1014.3 0.0
17/01:30pm 30.7 26.2 -7.3 8 16.4 NE 9 19 5 10 1016.5 1014.7 0.0
17/01:00pm 30.7 25.4 -7.3 8 16.4 SE 13 24 7 13 1016.9 1015.1 0.0
17/12:30pm 31.0 25.7 -7.1 8 16.5 ENE 13 24 7 13 1017.2 1015.4 0.0
17/12:00pm 30.2 24.5 -7.7 8 16.2 ESE 15 24 8 13 1017.9 1016.0 0.0
17/11:30am 30.2 25.4 -6.1 9 15.9 NNE 11 24 6 13 1018.3 1016.5 0.0
17/11:00am 29.2 23.6 -6.9 9 15.5 ENE 15 26 8 14 1019.1 1017.3 0.0
17/10:30am 29.2 22.4 -5.5 10 15.3 ENE 22 32 12 17 1019.6 1017.8 0.0
17/10:00am 28.1 20.9 -5.1 11 14.5 NE 24 30 13 16 1020.1 1018.4 0.0
17/09:30am 26.8 19.8 -3.9 13 13.6 NE 24 33 13 18 1020.6 1018.8 0.0
17/09:00am 26.8 19.8 -3.9 13 13.6 NE 24 32 13 17 1020.7 1018.9 0.0
17/08:30am 25.4 18.7 -4.0 14 12.9 NE 22 33 12 18 1020.7 1018.9 0.0
17/08:00am 22.4 17.7 -4.6 16 11.3 NE 11 15 6 8 1020.5 1018.7 0.0
17/07:30am 18.7 15.0 -4.7 20 9.5 NE 6 7 3 4 1020.3 1018.5 0.0
17/07:00am 15.5 12.9 -5.0 24 8.0 CALM 0 0 0 0 1019.8 1018.0 0.0
17/06:30am 11.9 9.6 -2.7 36 5.8 CALM 0 0 0 0 1019.4 1017.6 0.0
17/06:00am 7.8 5.3 -4.0 43 4.3 CALM 0 2 0 1 1019.0 1017.2 0.0
17/05:30am 7.4 4.9 -4.3 43 4.2 CALM 0 0 0 0 1018.5 1016.7 0.0
17/05:00am 7.6 5.0 -4.5 42 4.3 CALM 0 0 0 0 1017.9 1016.0 0.0
17/04:30am 8.2 5.6 -5.3 38 4.8 CALM 0 0 0 0 1017.4 1015.6 0.0
17/04:00am 8.7 6.0 -5.5 36 5.1 CALM 0 0 0 0 1017.3 1015.5 0.0
17/03:30am 9.5 6.8 -5.9 33 5.5 CALM 0 0 0 0 1017.2 1015.4 0.0
17/03:00am 9.6 6.9 -6.3 32 5.6 CALM 0 0 0 0 1017.1 1015.3 0.0
17/02:30am 10.4 7.6 -6.8 29 6.1 CALM 0 0 0 0 1017.0 1015.2 0.0
17/02:00am 11.1 8.3 -6.7 28 6.3 CALM 0 0 0 0 1017.0 1015.2 0.0
17/01:30am 10.9 8.2 -6.4 29 6.2 CALM 0 0 0 0 1016.9 1015.1 0.0
17/01:00am 11.3 8.5 -6.5 28 6.4 CALM 0 0 0 0 1017.0 1015.2 0.0
17/12:30am 11.2 8.5 -6.2 29 6.3 CALM 0 0 0 0 1016.9 1015.1 0.0
17/12:00am 11.8 9.0 -6.6 27 6.6 CALM 0 0 0 0 1016.9 1015.1 0.0
 
Date/Time
WST
Temp
°C
App
Temp
°C
Dew
Point
°C
Rel
Hum
%
Delta-T
°C
Wind Press
QNH
hPa
Press
MSL
hPa
Rain since
9am
mm
Dir  Spd
km/h
Gust
km/h
Spd
kts
Gust
kts
16/11:30pm 12.5 9.8 -6.0 27 6.8 CALM 0 0 0 0 1016.9 1015.1 0.0
16/11:00pm 12.2 9.5 -5.7 28 6.6 CALM 0 0 0 0 1016.9 1015.1 0.0
16/10:30pm 12.9 10.1 -6.6 25 7.1 CALM 0 0 0 0 1017.0 1015.2 0.0
16/10:00pm 14.2 11.5 -6.1 24 7.6 CALM 0 0 0 0 1017.2 1015.4 0.0
16/09:30pm 14.1 11.4 -6.1 24 7.6 CALM 0 0 0 0 1017.1 1015.3 0.0
16/09:00pm 15.6 12.8 -6.6 21 8.4 CALM 0 0 0 0 1016.9 1015.1 0.0
16/08:30pm 15.4 12.6 -6.8 21 8.3 CALM 0 0 0 0 1016.9 1015.1 0.0
16/08:00pm 16.1 12.9 -6.8 20 8.6 S 2 7 1 4 1016.9 1015.1 0.0
16/07:30pm 18.7 15.9 -6.8 17 9.9 CALM 0 0 0 0 1016.6 1014.8 0.0
16/07:00pm 18.2 15.3 -8.0 16 9.9 CALM 0 0 0 0 1016.3 1014.5 0.0
16/06:30pm 19.5 16.6 -7.8 15 10.5 CALM 0 0 0 0 1015.9 1014.1 0.0
16/06:00pm 21.8 17.7 -8.8 12 11.8 NE 6 7 3 4 1015.6 1013.7 0.0
16/05:30pm 24.7 20.5 -10.3 9 13.5 ENE 6 7 3 4 1015.4 1013.5 0.0
16/05:00pm 28.9 23.4 -10.3 7 15.8 E 13 19 7 10 1015.2 1013.3 0.0
16/04:30pm 30.4 24.6 -9.2 7 16.5 ENE 15 20 8 11 1014.9 1013.1 0.0
16/04:00pm 30.9 25.5 -8.9 7 16.7 ENE 13 20 7 11 1014.8 1013.0 0.0
16/03:30pm 31.6 25.7 -10.3 6 17.3 ENE 15 28 8 15 1014.6 1012.8 0.0
16/03:00pm 31.5 26.1 -8.4 7 17.0 ENE 13 24 7 13 1014.7 1012.9 0.0
16/02:30pm 31.7 25.2 -8.3 7 17.1 E 19 30 10 16 1014.9 1013.1 0.0
16/02:00pm 30.9 25.5 -8.9 7 16.7 E 13 20 7 11 1015.1 1013.2 0.0
16/01:30pm 31.3 24.6 -8.6 7 16.9 NE 20 32 11 17 1015.4 1013.5 0.0
16/01:00pm 31.5 24.0 -8.4 7 17.0 ENE 24 35 13 19 1015.8 1014.0 0.0
16/12:30pm 30.6 23.1 -9.1 7 16.6 E 24 35 13 19 1016.2 1014.4 0.0
16/12:00pm 30.4 23.4 -7.5 8 16.2 E 22 33 12 18 1016.6 1014.8 0.0
16/11:30am 29.6 22.1 -8.1 8 15.9 NE 24 37 13 20 1017.1 1015.3 0.0
16/11:00am 29.1 21.2 -8.5 8 15.6 E 26 37 14 20 1017.8 1015.9 0.0
16/10:37am 28.9 19.9 -8.6 8 15.6 E 32 50 17 27 1018.1 1016.3 0.0
16/10:30am 28.9 19.8 -7.1 9 15.4 E 33 43 18 23 1018.2 1016.4 0.0
16/10:00am 28.5 20.3 -7.4 9 15.1 E 28 39 15 21 1018.6 1016.8 0.0
16/09:30am 28.3 21.3 -7.6 9 15.1 E 22 32 12 17 1018.9 1017.1 0.0
16/09:00am 26.6 19.9 -7.5 10 14.1 E 20 28 11 15 1019.0 1017.2 0.0
16/08:30am 25.2 19.5 -7.3 11 13.4 E 15 20 8 11 1018.8 1017.0 0.0
16/08:00am 23.5 18.4 -5.5 14 12.1 ESE 13 17 7 9 1018.7 1016.9 0.0
16/07:30am 20.5 16.5 -5.4 17 10.5 ESE 7 11 4 6 1018.5 1016.7 0.0
16/07:00am 15.6 13.0 -4.9 24 8.0 CALM 0 0 0 0 1018.4 1016.6 0.0

Other formats

Comma delimited format used in spreadsheet applications
http://www.bom.gov.au/fwo/IDW60801/IDW60801.94212.axf

JavaScript Object Notation format (JSON) in row-major order
http://www.bom.gov.au/fwo/IDW60801/IDW60801.94212.json

Data quality

Most of these data are generated automatically and are frequently updated. Quality checks on data are not normally performed. It is possible for incorrect values to appear. Refer to information at About Latest Weather Observations and please check the disclaimer before using these data.